sensor_id;sensor_type;location;lat;lon;timestamp;P1;durP1;ratioP1;P2;durP2;ratioP2
7657;SDS011;8462;53.156;8.220;2023-02-03T00:00:47;5.53;;;3.67;;
7657;SDS011;8462;53.156;8.220;2023-02-03T00:03:17;6.80;;;3.37;;
7657;SDS011;8462;53.156;8.220;2023-02-03T00:05:46;10.90;;;3.87;;
7657;SDS011;8462;53.156;8.220;2023-02-03T00:08:13;10.63;;;3.47;;
7657;SDS011;8462;53.156;8.220;2023-02-03T00:10:42;9.23;;;3.87;;
7657;SDS011;8462;53.156;8.220;2023-02-03T00:13:10;6.40;;;3.37;;
7657;SDS011;8462;53.156;8.220;2023-02-03T00:15:37;5.63;;;2.97;;
7657;SDS011;8462;53.156;8.220;2023-02-03T00:18:04;5.90;;;3.10;;
7657;SDS011;8462;53.156;8.220;2023-02-03T00:20:30;11.00;;;3.97;;
7657;SDS011;8462;53.156;8.220;2023-02-03T00:23:03;7.27;;;2.77;;
7657;SDS011;8462;53.156;8.220;2023-02-03T00:25:30;4.77;;;2.27;;
7657;SDS011;8462;53.156;8.220;2023-02-03T00:27:58;4.03;;;2.53;;
7657;SDS011;8462;53.156;8.220;2023-02-03T00:30:25;7.37;;;2.13;;
7657;SDS011;8462;53.156;8.220;2023-02-03T00:32:52;8.53;;;2.70;;
7657;SDS011;8462;53.156;8.220;2023-02-03T00:35:19;3.20;;;1.90;;
7657;SDS011;8462;53.156;8.220;2023-02-03T00:37:49;7.53;;;2.33;;
7657;SDS011;8462;53.156;8.220;2023-02-03T00:40:19;6.17;;;2.10;;
7657;SDS011;8462;53.156;8.220;2023-02-03T00:42:46;6.37;;;2.00;;
7657;SDS011;8462;53.156;8.220;2023-02-03T00:45:14;4.80;;;2.00;;
7657;SDS011;8462;53.156;8.220;2023-02-03T00:47:41;7.03;;;2.50;;
7657;SDS011;8462;53.156;8.220;2023-02-03T00:50:08;4.70;;;1.60;;
7657;SDS011;8462;53.156;8.220;2023-02-03T00:52:36;4.80;;;2.23;;
7657;SDS011;8462;53.156;8.220;2023-02-03T00:55:03;5.37;;;1.63;;
7657;SDS011;8462;53.156;8.220;2023-02-03T00:57:32;3.50;;;1.90;;
7657;SDS011;8462;53.156;8.220;2023-02-03T00:59:59;5.90;;;1.60;;
7657;SDS011;8462;53.156;8.220;2023-02-03T01:02:26;3.23;;;1.60;;
7657;SDS011;8462;53.156;8.220;2023-02-03T01:04:53;4.57;;;1.80;;
7657;SDS011;8462;53.156;8.220;2023-02-03T01:07:20;7.23;;;1.90;;
7657;SDS011;8462;53.156;8.220;2023-02-03T01:09:47;5.23;;;1.77;;
7657;SDS011;8462;53.156;8.220;2023-02-03T01:12:14;6.97;;;1.70;;
7657;SDS011;8462;53.156;8.220;2023-02-03T01:14:42;1.73;;;1.23;;
7657;SDS011;8462;53.156;8.220;2023-02-03T01:17:09;4.77;;;1.80;;
7657;SDS011;8462;53.156;8.220;2023-02-03T01:19:36;7.87;;;2.00;;
7657;SDS011;8462;53.156;8.220;2023-02-03T01:22:03;3.80;;;1.67;;
7657;SDS011;8462;53.156;8.220;2023-02-03T01:24:30;5.37;;;1.90;;
7657;SDS011;8462;53.156;8.220;2023-02-03T01:26:57;6.23;;;1.87;;
7657;SDS011;8462;53.156;8.220;2023-02-03T01:29:24;3.10;;;1.57;;
7657;SDS011;8462;53.156;8.220;2023-02-03T01:31:52;5.00;;;1.47;;
7657;SDS011;8462;53.156;8.220;2023-02-03T01:34:19;6.63;;;1.97;;
7657;SDS011;8462;53.156;8.220;2023-02-03T01:36:46;5.17;;;2.50;;
7657;SDS011;8462;53.156;8.220;2023-02-03T01:39:13;5.30;;;2.00;;
7657;SDS011;8462;53.156;8.220;2023-02-03T01:41:40;7.00;;;2.47;;
7657;SDS011;8462;53.156;8.220;2023-02-03T01:47:12;8.30;;;2.20;;
7657;SDS011;8462;53.156;8.220;2023-02-03T01:49:53;2.63;;;1.40;;
7657;SDS011;8462;53.156;8.220;2023-02-03T01:52:24;4.00;;;1.60;;
7657;SDS011;8462;53.156;8.220;2023-02-03T01:54:52;3.70;;;2.03;;
7657;SDS011;8462;53.156;8.220;2023-02-03T01:57:23;4.23;;;1.77;;
7657;SDS011;8462;53.156;8.220;2023-02-03T01:59:54;7.43;;;1.93;;
7657;SDS011;8462;53.156;8.220;2023-02-03T02:02:25;3.87;;;1.90;;
7657;SDS011;8462;53.156;8.220;2023-02-03T02:04:53;5.20;;;1.73;;
7657;SDS011;8462;53.156;8.220;2023-02-03T02:07:23;8.23;;;2.00;;
7657;SDS011;8462;53.156;8.220;2023-02-03T02:09:50;4.83;;;1.93;;
7657;SDS011;8462;53.156;8.220;2023-02-03T02:12:17;5.17;;;2.00;;
7657;SDS011;8462;53.156;8.220;2023-02-03T02:14:44;3.33;;;1.60;;
7657;SDS011;8462;53.156;8.220;2023-02-03T02:17:16;3.77;;;1.77;;
7657;SDS011;8462;53.156;8.220;2023-02-03T02:20:09;4.87;;;1.80;;
7657;SDS011;8462;53.156;8.220;2023-02-03T02:23:18;2.70;;;1.53;;
7657;SDS011;8462;53.156;8.220;2023-02-03T02:26:19;5.73;;;1.90;;
7657;SDS011;8462;53.156;8.220;2023-02-03T02:32:20;4.00;;;1.83;;
7657;SDS011;8462;53.156;8.220;2023-02-03T02:34:58;2.97;;;1.33;;
7657;SDS011;8462;53.156;8.220;2023-02-03T02:37:34;4.77;;;1.70;;
7657;SDS011;8462;53.156;8.220;2023-02-03T02:40:08;4.70;;;2.20;;
7657;SDS011;8462;53.156;8.220;2023-02-03T02:42:42;3.20;;;1.63;;
7657;SDS011;8462;53.156;8.220;2023-02-03T02:45:19;6.93;;;1.70;;
7657;SDS011;8462;53.156;8.220;2023-02-03T02:47:52;6.43;;;1.90;;
7657;SDS011;8462;53.156;8.220;2023-02-03T02:50:25;3.97;;;1.50;;
7657;SDS011;8462;53.156;8.220;2023-02-03T02:52:55;4.07;;;1.67;;
7657;SDS011;8462;53.156;8.220;2023-02-03T02:55:23;2.30;;;1.50;;
7657;SDS011;8462;53.156;8.220;2023-02-03T02:57:57;3.70;;;1.63;;
7657;SDS011;8462;53.156;8.220;2023-02-03T03:00:28;3.77;;;1.47;;
7657;SDS011;8462;53.156;8.220;2023-02-03T03:03:05;4.63;;;1.67;;
7657;SDS011;8462;53.156;8.220;2023-02-03T03:05:37;3.10;;;1.60;;
7657;SDS011;8462;53.156;8.220;2023-02-03T03:08:07;2.83;;;1.40;;
7657;SDS011;8462;53.156;8.220;2023-02-03T03:10:37;4.10;;;1.70;;
7657;SDS011;8462;53.156;8.220;2023-02-03T03:13:08;4.27;;;1.70;;
7657;SDS011;8462;53.156;8.220;2023-02-03T03:15:39;4.63;;;1.70;;
7657;SDS011;8462;53.156;8.220;2023-02-03T03:18:10;3.30;;;1.50;;
7657;SDS011;8462;53.156;8.220;2023-02-03T03:20:40;2.00;;;1.60;;
7657;SDS011;8462;53.156;8.220;2023-02-03T03:23:10;4.67;;;1.60;;
7657;SDS011;8462;53.156;8.220;2023-02-03T03:25:41;5.30;;;1.70;;
7657;SDS011;8462;53.156;8.220;2023-02-03T03:28:12;7.93;;;1.70;;
7657;SDS011;8462;53.156;8.220;2023-02-03T03:30:42;4.33;;;1.83;;
7657;SDS011;8462;53.156;8.220;2023-02-03T03:33:10;5.03;;;1.80;;
7657;SDS011;8462;53.156;8.220;2023-02-03T03:35:38;2.80;;;1.63;;
7657;SDS011;8462;53.156;8.220;2023-02-03T03:38:12;4.93;;;1.47;;
7657;SDS011;8462;53.156;8.220;2023-02-03T03:40:47;4.40;;;1.60;;
7657;SDS011;8462;53.156;8.220;2023-02-03T03:43:18;3.90;;;1.67;;
7657;SDS011;8462;53.156;8.220;2023-02-03T03:45:49;3.07;;;2.00;;
7657;SDS011;8462;53.156;8.220;2023-02-03T03:48:22;4.47;;;2.00;;
7657;SDS011;8462;53.156;8.220;2023-02-03T03:50:55;4.80;;;1.70;;
7657;SDS011;8462;53.156;8.220;2023-02-03T03:53:26;3.90;;;1.80;;
7657;SDS011;8462;53.156;8.220;2023-02-03T03:55:55;7.87;;;2.00;;
7657;SDS011;8462;53.156;8.220;2023-02-03T03:58:27;1.90;;;1.33;;
7657;SDS011;8462;53.156;8.220;2023-02-03T04:00:56;4.03;;;1.43;;
7657;SDS011;8462;53.156;8.220;2023-02-03T04:03:29;3.07;;;1.87;;
7657;SDS011;8462;53.156;8.220;2023-02-03T04:06:00;4.23;;;1.43;;
7657;SDS011;8462;53.156;8.220;2023-02-03T04:08:27;8.87;;;2.13;;
7657;SDS011;8462;53.156;8.220;2023-02-03T04:10:54;5.63;;;1.40;;
7657;SDS011;8462;53.156;8.220;2023-02-03T04:13:21;4.30;;;1.80;;
7657;SDS011;8462;53.156;8.220;2023-02-03T04:15:48;3.33;;;1.60;;
7657;SDS011;8462;53.156;8.220;2023-02-03T04:18:15;5.10;;;1.50;;
7657;SDS011;8462;53.156;8.220;2023-02-03T04:20:43;8.63;;;1.80;;
7657;SDS011;8462;53.156;8.220;2023-02-03T04:23:10;6.93;;;2.40;;
7657;SDS011;8462;53.156;8.220;2023-02-03T04:25:37;7.90;;;1.63;;
7657;SDS011;8462;53.156;8.220;2023-02-03T04:28:04;3.57;;;1.60;;
7657;SDS011;8462;53.156;8.220;2023-02-03T04:30:31;5.97;;;1.93;;
7657;SDS011;8462;53.156;8.220;2023-02-03T04:32:58;7.17;;;1.53;;
7657;SDS011;8462;53.156;8.220;2023-02-03T04:35:24;6.93;;;1.80;;
7657;SDS011;8462;53.156;8.220;2023-02-03T04:37:53;7.37;;;1.87;;
7657;SDS011;8462;53.156;8.220;2023-02-03T04:40:20;3.97;;;1.40;;
7657;SDS011;8462;53.156;8.220;2023-02-03T04:42:46;6.57;;;1.40;;
7657;SDS011;8462;53.156;8.220;2023-02-03T04:45:13;2.70;;;1.60;;
7657;SDS011;8462;53.156;8.220;2023-02-03T04:47:40;6.20;;;1.70;;
7657;SDS011;8462;53.156;8.220;2023-02-03T04:50:07;9.07;;;1.90;;
7657;SDS011;8462;53.156;8.220;2023-02-03T04:52:35;4.37;;;1.97;;
7657;SDS011;8462;53.156;8.220;2023-02-03T04:55:03;6.60;;;1.70;;
7657;SDS011;8462;53.156;8.220;2023-02-03T04:57:31;4.87;;;2.00;;
7657;SDS011;8462;53.156;8.220;2023-02-03T04:59:57;6.57;;;1.70;;
7657;SDS011;8462;53.156;8.220;2023-02-03T05:02:24;4.47;;;1.50;;
7657;SDS011;8462;53.156;8.220;2023-02-03T05:04:51;7.37;;;2.10;;
7657;SDS011;8462;53.156;8.220;2023-02-03T05:07:18;8.67;;;2.23;;
7657;SDS011;8462;53.156;8.220;2023-02-03T05:09:45;6.50;;;2.13;;
7657;SDS011;8462;53.156;8.220;2023-02-03T05:12:13;4.17;;;1.80;;
7657;SDS011;8462;53.156;8.220;2023-02-03T05:14:40;4.70;;;1.63;;
7657;SDS011;8462;53.156;8.220;2023-02-03T05:17:07;4.63;;;2.10;;
7657;SDS011;8462;53.156;8.220;2023-02-03T05:19:34;8.93;;;2.43;;
7657;SDS011;8462;53.156;8.220;2023-02-03T05:22:00;7.17;;;1.77;;
7657;SDS011;8462;53.156;8.220;2023-02-03T05:24:27;9.37;;;2.33;;
7657;SDS011;8462;53.156;8.220;2023-02-03T05:26:54;6.83;;;1.87;;
7657;SDS011;8462;53.156;8.220;2023-02-03T05:29:22;7.23;;;1.90;;
7657;SDS011;8462;53.156;8.220;2023-02-03T05:31:49;4.27;;;1.80;;
7657;SDS011;8462;53.156;8.220;2023-02-03T05:34:16;4.70;;;1.87;;
7657;SDS011;8462;53.156;8.220;2023-02-03T05:36:43;3.30;;;1.53;;
7657;SDS011;8462;53.156;8.220;2023-02-03T05:39:10;6.40;;;1.90;;
7657;SDS011;8462;53.156;8.220;2023-02-03T05:41:36;5.67;;;2.03;;
7657;SDS011;8462;53.156;8.220;2023-02-03T05:44:18;5.23;;;1.70;;
7657;SDS011;8462;53.156;8.220;2023-02-03T05:46:48;5.60;;;2.43;;
7657;SDS011;8462;53.156;8.220;2023-02-03T05:49:17;7.07;;;2.30;;
7657;SDS011;8462;53.156;8.220;2023-02-03T05:51:44;4.07;;;2.07;;
7657;SDS011;8462;53.156;8.220;2023-02-03T05:54:13;3.83;;;2.37;;
7657;SDS011;8462;53.156;8.220;2023-02-03T05:56:40;9.67;;;2.20;;
7657;SDS011;8462;53.156;8.220;2023-02-03T05:59:07;3.80;;;2.00;;
7657;SDS011;8462;53.156;8.220;2023-02-03T06:01:34;2.10;;;1.53;;
7657;SDS011;8462;53.156;8.220;2023-02-03T06:04:03;6.20;;;2.30;;
7657;SDS011;8462;53.156;8.220;2023-02-03T06:06:30;4.70;;;1.90;;
7657;SDS011;8462;53.156;8.220;2023-02-03T06:08:58;6.33;;;2.33;;
7657;SDS011;8462;53.156;8.220;2023-02-03T06:11:26;3.73;;;1.90;;
7657;SDS011;8462;53.156;8.220;2023-02-03T06:13:53;5.87;;;2.40;;
7657;SDS011;8462;53.156;8.220;2023-02-03T06:16:20;5.77;;;1.90;;
7657;SDS011;8462;53.156;8.220;2023-02-03T06:18:49;7.70;;;2.47;;
7657;SDS011;8462;53.156;8.220;2023-02-03T06:21:18;3.40;;;1.50;;
7657;SDS011;8462;53.156;8.220;2023-02-03T06:23:45;7.37;;;2.20;;
7657;SDS011;8462;53.156;8.220;2023-02-03T06:26:12;6.47;;;1.83;;
7657;SDS011;8462;53.156;8.220;2023-02-03T06:28:39;6.47;;;2.00;;
7657;SDS011;8462;53.156;8.220;2023-02-03T06:31:06;9.07;;;1.93;;
7657;SDS011;8462;53.156;8.220;2023-02-03T06:33:33;4.63;;;2.00;;
7657;SDS011;8462;53.156;8.220;2023-02-03T06:36:00;4.13;;;2.10;;
7657;SDS011;8462;53.156;8.220;2023-02-03T06:38:28;10.80;;;2.50;;
7657;SDS011;8462;53.156;8.220;2023-02-03T06:40:55;7.70;;;1.70;;
7657;SDS011;8462;53.156;8.220;2023-02-03T06:43:21;10.40;;;1.70;;
7657;SDS011;8462;53.156;8.220;2023-02-03T06:45:48;7.13;;;1.93;;
7657;SDS011;8462;53.156;8.220;2023-02-03T06:48:15;5.70;;;2.13;;
7657;SDS011;8462;53.156;8.220;2023-02-03T06:50:43;4.40;;;2.07;;
7657;SDS011;8462;53.156;8.220;2023-02-03T06:53:10;4.30;;;1.73;;
7657;SDS011;8462;53.156;8.220;2023-02-03T06:55:38;7.37;;;2.20;;
7657;SDS011;8462;53.156;8.220;2023-02-03T06:58:05;3.40;;;2.13;;
7657;SDS011;8462;53.156;8.220;2023-02-03T07:00:32;4.43;;;1.43;;
7657;SDS011;8462;53.156;8.220;2023-02-03T07:02:58;4.30;;;1.90;;
7657;SDS011;8462;53.156;8.220;2023-02-03T07:05:26;4.67;;;2.23;;
7657;SDS011;8462;53.156;8.220;2023-02-03T07:07:53;6.20;;;1.67;;
7657;SDS011;8462;53.156;8.220;2023-02-03T07:10:20;6.90;;;2.07;;
7657;SDS011;8462;53.156;8.220;2023-02-03T07:12:48;5.87;;;1.67;;
7657;SDS011;8462;53.156;8.220;2023-02-03T07:15:16;3.93;;;2.03;;
7657;SDS011;8462;53.156;8.220;2023-02-03T07:17:43;7.73;;;2.50;;
7657;SDS011;8462;53.156;8.220;2023-02-03T07:20:18;7.33;;;3.10;;
7657;SDS011;8462;53.156;8.220;2023-02-03T07:22:50;7.00;;;2.23;;
7657;SDS011;8462;53.156;8.220;2023-02-03T07:25:17;5.47;;;1.57;;
7657;SDS011;8462;53.156;8.220;2023-02-03T07:27:44;7.30;;;2.30;;
7657;SDS011;8462;53.156;8.220;2023-02-03T07:30:13;6.97;;;2.57;;
7657;SDS011;8462;53.156;8.220;2023-02-03T07:32:42;3.87;;;2.07;;
7657;SDS011;8462;53.156;8.220;2023-02-03T07:35:12;12.23;;;2.60;;
7657;SDS011;8462;53.156;8.220;2023-02-03T07:37:39;6.60;;;2.00;;
7657;SDS011;8462;53.156;8.220;2023-02-03T07:40:07;7.37;;;1.80;;
7657;SDS011;8462;53.156;8.220;2023-02-03T07:42:34;6.17;;;2.00;;
7657;SDS011;8462;53.156;8.220;2023-02-03T07:45:03;10.73;;;2.30;;
7657;SDS011;8462;53.156;8.220;2023-02-03T07:47:32;8.27;;;1.80;;
7657;SDS011;8462;53.156;8.220;2023-02-03T07:50:00;5.20;;;1.70;;
7657;SDS011;8462;53.156;8.220;2023-02-03T07:52:26;7.10;;;2.23;;
7657;SDS011;8462;53.156;8.220;2023-02-03T07:54:53;4.17;;;2.00;;
7657;SDS011;8462;53.156;8.220;2023-02-03T07:57:20;6.53;;;1.90;;
7657;SDS011;8462;53.156;8.220;2023-02-03T07:59:47;6.77;;;1.90;;
7657;SDS011;8462;53.156;8.220;2023-02-03T08:02:16;9.47;;;2.20;;
7657;SDS011;8462;53.156;8.220;2023-02-03T08:04:44;12.43;;;3.40;;
7657;SDS011;8462;53.156;8.220;2023-02-03T08:07:12;17.57;;;2.73;;
7657;SDS011;8462;53.156;8.220;2023-02-03T08:09:39;7.30;;;2.03;;
7657;SDS011;8462;53.156;8.220;2023-02-03T08:12:07;4.97;;;3.20;;
7657;SDS011;8462;53.156;8.220;2023-02-03T08:14:34;7.73;;;2.10;;
7657;SDS011;8462;53.156;8.220;2023-02-03T08:17:01;6.07;;;2.47;;
7657;SDS011;8462;53.156;8.220;2023-02-03T08:19:28;7.03;;;2.47;;
7657;SDS011;8462;53.156;8.220;2023-02-03T08:21:56;8.23;;;2.33;;
7657;SDS011;8462;53.156;8.220;2023-02-03T08:24:24;8.77;;;2.27;;
7657;SDS011;8462;53.156;8.220;2023-02-03T08:26:53;13.50;;;2.70;;
7657;SDS011;8462;53.156;8.220;2023-02-03T08:29:21;7.47;;;3.00;;
7657;SDS011;8462;53.156;8.220;2023-02-03T08:31:47;6.23;;;2.63;;
7657;SDS011;8462;53.156;8.220;2023-02-03T08:34:14;11.10;;;1.90;;
7657;SDS011;8462;53.156;8.220;2023-02-03T08:36:41;6.67;;;2.13;;
7657;SDS011;8462;53.156;8.220;2023-02-03T08:39:10;10.73;;;2.60;;
7657;SDS011;8462;53.156;8.220;2023-02-03T08:41:37;9.23;;;3.30;;
7657;SDS011;8462;53.156;8.220;2023-02-03T08:44:04;13.53;;;2.80;;
7657;SDS011;8462;53.156;8.220;2023-02-03T08:46:31;11.63;;;2.37;;
7657;SDS011;8462;53.156;8.220;2023-02-03T08:48:59;12.43;;;2.63;;
7657;SDS011;8462;53.156;8.220;2023-02-03T08:51:27;8.17;;;2.67;;
7657;SDS011;8462;53.156;8.220;2023-02-03T08:53:55;17.27;;;3.47;;
7657;SDS011;8462;53.156;8.220;2023-02-03T08:56:23;11.93;;;2.10;;
7657;SDS011;8462;53.156;8.220;2023-02-03T08:58:51;12.87;;;3.03;;
7657;SDS011;8462;53.156;8.220;2023-02-03T09:01:18;12.60;;;2.60;;
7657;SDS011;8462;53.156;8.220;2023-02-03T09:03:45;13.93;;;3.40;;
7657;SDS011;8462;53.156;8.220;2023-02-03T09:06:12;15.07;;;3.07;;
7657;SDS011;8462;53.156;8.220;2023-02-03T09:08:41;12.13;;;2.17;;
7657;SDS011;8462;53.156;8.220;2023-02-03T09:11:09;9.70;;;2.63;;
7657;SDS011;8462;53.156;8.220;2023-02-03T09:13:38;10.70;;;2.40;;
7657;SDS011;8462;53.156;8.220;2023-02-03T09:16:12;13.03;;;2.53;;
7657;SDS011;8462;53.156;8.220;2023-02-03T09:18:43;12.80;;;2.23;;
7657;SDS011;8462;53.156;8.220;2023-02-03T09:21:11;6.00;;;1.77;;
7657;SDS011;8462;53.156;8.220;2023-02-03T09:23:41;9.10;;;2.23;;
7657;SDS011;8462;53.156;8.220;2023-02-03T09:26:09;14.13;;;3.17;;
7657;SDS011;8462;53.156;8.220;2023-02-03T09:28:39;12.83;;;3.07;;
7657;SDS011;8462;53.156;8.220;2023-02-03T09:31:07;12.80;;;2.40;;
7657;SDS011;8462;53.156;8.220;2023-02-03T09:33:37;14.30;;;3.40;;
7657;SDS011;8462;53.156;8.220;2023-02-03T09:36:05;12.47;;;2.90;;
7657;SDS011;8462;53.156;8.220;2023-02-03T09:38:33;19.07;;;2.87;;
7657;SDS011;8462;53.156;8.220;2023-02-03T09:41:02;10.77;;;3.47;;
7657;SDS011;8462;53.156;8.220;2023-02-03T09:43:40;18.53;;;3.97;;
7657;SDS011;8462;53.156;8.220;2023-02-03T09:46:11;15.13;;;2.80;;
7657;SDS011;8462;53.156;8.220;2023-02-03T09:48:46;14.73;;;3.07;;
7657;SDS011;8462;53.156;8.220;2023-02-03T09:51:17;13.80;;;3.13;;
7657;SDS011;8462;53.156;8.220;2023-02-03T09:53:47;14.73;;;3.17;;
7657;SDS011;8462;53.156;8.220;2023-02-03T09:56:21;18.40;;;4.27;;
7657;SDS011;8462;53.156;8.220;2023-02-03T09:59:00;14.17;;;3.73;;
7657;SDS011;8462;53.156;8.220;2023-02-03T10:01:29;19.73;;;4.30;;
7657;SDS011;8462;53.156;8.220;2023-02-03T10:04:04;23.97;;;3.93;;
7657;SDS011;8462;53.156;8.220;2023-02-03T10:06:44;12.70;;;3.57;;
7657;SDS011;8462;53.156;8.220;2023-02-03T10:09:18;14.33;;;3.53;;
7657;SDS011;8462;53.156;8.220;2023-02-03T10:15:11;17.33;;;4.13;;
7657;SDS011;8462;53.156;8.220;2023-02-03T10:17:57;13.50;;;3.70;;
7657;SDS011;8462;53.156;8.220;2023-02-03T10:20:28;15.93;;;3.20;;
7657;SDS011;8462;53.156;8.220;2023-02-03T10:23:01;14.83;;;3.73;;
7657;SDS011;8462;53.156;8.220;2023-02-03T10:25:33;12.63;;;3.17;;
7657;SDS011;8462;53.156;8.220;2023-02-03T10:28:08;15.27;;;4.20;;
7657;SDS011;8462;53.156;8.220;2023-02-03T10:30:43;12.37;;;2.90;;
7657;SDS011;8462;53.156;8.220;2023-02-03T10:33:14;16.83;;;4.00;;
7657;SDS011;8462;53.156;8.220;2023-02-03T10:35:45;12.53;;;3.60;;
7657;SDS011;8462;53.156;8.220;2023-02-03T10:38:20;15.60;;;3.97;;
7657;SDS011;8462;53.156;8.220;2023-02-03T10:41:02;14.67;;;3.77;;
7657;SDS011;8462;53.156;8.220;2023-02-03T10:43:29;20.53;;;3.93;;
7657;SDS011;8462;53.156;8.220;2023-02-03T10:46:19;18.43;;;3.63;;
7657;SDS011;8462;53.156;8.220;2023-02-03T10:48:51;18.70;;;4.37;;
7657;SDS011;8462;53.156;8.220;2023-02-03T10:51:20;16.63;;;3.87;;
7657;SDS011;8462;53.156;8.220;2023-02-03T10:53:48;11.00;;;3.80;;
7657;SDS011;8462;53.156;8.220;2023-02-03T10:56:18;19.67;;;4.27;;
7657;SDS011;8462;53.156;8.220;2023-02-03T10:58:48;21.87;;;5.67;;
7657;SDS011;8462;53.156;8.220;2023-02-03T11:01:18;21.27;;;4.93;;
7657;SDS011;8462;53.156;8.220;2023-02-03T11:03:57;14.67;;;3.23;;
7657;SDS011;8462;53.156;8.220;2023-02-03T11:06:27;19.60;;;3.47;;
7657;SDS011;8462;53.156;8.220;2023-02-03T11:08:55;20.43;;;4.00;;
7657;SDS011;8462;53.156;8.220;2023-02-03T11:11:23;17.27;;;3.73;;
7657;SDS011;8462;53.156;8.220;2023-02-03T11:13:53;22.33;;;4.77;;
7657;SDS011;8462;53.156;8.220;2023-02-03T11:16:25;12.83;;;3.73;;
7657;SDS011;8462;53.156;8.220;2023-02-03T11:18:55;14.83;;;4.00;;
7657;SDS011;8462;53.156;8.220;2023-02-03T11:21:26;14.33;;;3.30;;
7657;SDS011;8462;53.156;8.220;2023-02-03T11:23:56;10.70;;;3.70;;
7657;SDS011;8462;53.156;8.220;2023-02-03T11:26:27;16.60;;;3.90;;
7657;SDS011;8462;53.156;8.220;2023-02-03T11:28:59;11.03;;;3.40;;
7657;SDS011;8462;53.156;8.220;2023-02-03T11:34:01;17.37;;;4.67;;
7657;SDS011;8462;53.156;8.220;2023-02-03T11:36:30;17.87;;;3.63;;
7657;SDS011;8462;53.156;8.220;2023-02-03T11:41:49;13.57;;;3.37;;
7657;SDS011;8462;53.156;8.220;2023-02-03T11:44:17;16.07;;;3.80;;
7657;SDS011;8462;53.156;8.220;2023-02-03T11:46:48;16.73;;;3.20;;
7657;SDS011;8462;53.156;8.220;2023-02-03T11:49:25;12.63;;;3.83;;
7657;SDS011;8462;53.156;8.220;2023-02-03T11:52:38;9.67;;;3.33;;
7657;SDS011;8462;53.156;8.220;2023-02-03T11:58:34;16.63;;;3.30;;
7657;SDS011;8462;53.156;8.220;2023-02-03T12:01:13;14.97;;;2.90;;
7657;SDS011;8462;53.156;8.220;2023-02-03T12:04:03;13.73;;;3.03;;
7657;SDS011;8462;53.156;8.220;2023-02-03T12:06:55;15.77;;;3.87;;
7657;SDS011;8462;53.156;8.220;2023-02-03T12:09:36;10.47;;;3.10;;
7657;SDS011;8462;53.156;8.220;2023-02-03T12:12:19;15.80;;;4.73;;
7657;SDS011;8462;53.156;8.220;2023-02-03T12:15:00;12.57;;;3.50;;
7657;SDS011;8462;53.156;8.220;2023-02-03T12:20:36;14.10;;;4.10;;
7657;SDS011;8462;53.156;8.220;2023-02-03T12:23:16;17.60;;;4.23;;
7657;SDS011;8462;53.156;8.220;2023-02-03T12:25:59;12.67;;;3.50;;
7657;SDS011;8462;53.156;8.220;2023-02-03T12:28:40;16.00;;;3.87;;
7657;SDS011;8462;53.156;8.220;2023-02-03T12:31:15;11.80;;;3.73;;
7657;SDS011;8462;53.156;8.220;2023-02-03T12:33:49;11.10;;;3.60;;
7657;SDS011;8462;53.156;8.220;2023-02-03T12:36:21;10.47;;;3.10;;
7657;SDS011;8462;53.156;8.220;2023-02-03T12:38:53;11.60;;;3.60;;
7657;SDS011;8462;53.156;8.220;2023-02-03T12:41:25;14.10;;;3.07;;
7657;SDS011;8462;53.156;8.220;2023-02-03T12:43:57;15.57;;;3.50;;
7657;SDS011;8462;53.156;8.220;2023-02-03T12:46:29;15.77;;;3.60;;
7657;SDS011;8462;53.156;8.220;2023-02-03T12:49:02;15.53;;;4.07;;
7657;SDS011;8462;53.156;8.220;2023-02-03T12:51:33;13.13;;;3.43;;
7657;SDS011;8462;53.156;8.220;2023-02-03T12:54:09;13.77;;;3.33;;
7657;SDS011;8462;53.156;8.220;2023-02-03T12:56:43;13.13;;;3.20;;
7657;SDS011;8462;53.156;8.220;2023-02-03T12:59:17;11.30;;;2.97;;
7657;SDS011;8462;53.156;8.220;2023-02-03T13:01:49;14.57;;;3.70;;
7657;SDS011;8462;53.156;8.220;2023-02-03T13:04:22;11.70;;;3.03;;
7657;SDS011;8462;53.156;8.220;2023-02-03T13:06:58;11.57;;;3.43;;
7657;SDS011;8462;53.156;8.220;2023-02-03T13:09:30;14.30;;;3.83;;
7657;SDS011;8462;53.156;8.220;2023-02-03T13:12:05;17.63;;;4.80;;
7657;SDS011;8462;53.156;8.220;2023-02-03T13:14:37;16.37;;;3.10;;
7657;SDS011;8462;53.156;8.220;2023-02-03T13:17:11;12.93;;;3.20;;
7657;SDS011;8462;53.156;8.220;2023-02-03T13:19:44;19.93;;;4.83;;
7657;SDS011;8462;53.156;8.220;2023-02-03T13:22:15;14.03;;;3.27;;
7657;SDS011;8462;53.156;8.220;2023-02-03T13:24:45;12.77;;;3.63;;
7657;SDS011;8462;53.156;8.220;2023-02-03T13:27:22;17.43;;;4.17;;
7657;SDS011;8462;53.156;8.220;2023-02-03T13:30:07;11.17;;;4.07;;
7657;SDS011;8462;53.156;8.220;2023-02-03T13:32:53;18.03;;;3.70;;
7657;SDS011;8462;53.156;8.220;2023-02-03T13:35:40;26.73;;;3.60;;
7657;SDS011;8462;53.156;8.220;2023-02-03T13:41:17;12.60;;;3.80;;
7657;SDS011;8462;53.156;8.220;2023-02-03T13:43:53;16.40;;;3.63;;
7657;SDS011;8462;53.156;8.220;2023-02-03T13:46:23;8.63;;;2.97;;
7657;SDS011;8462;53.156;8.220;2023-02-03T13:48:51;17.20;;;2.90;;
7657;SDS011;8462;53.156;8.220;2023-02-03T13:51:20;7.77;;;2.03;;
7657;SDS011;8462;53.156;8.220;2023-02-03T13:53:51;13.07;;;2.80;;
7657;SDS011;8462;53.156;8.220;2023-02-03T13:56:25;12.17;;;2.73;;
7657;SDS011;8462;53.156;8.220;2023-02-03T13:59:01;12.50;;;2.93;;
7657;SDS011;8462;53.156;8.220;2023-02-03T14:01:31;13.53;;;2.83;;
7657;SDS011;8462;53.156;8.220;2023-02-03T14:04:03;12.97;;;3.27;;
7657;SDS011;8462;53.156;8.220;2023-02-03T14:09:40;6.43;;;2.70;;
7657;SDS011;8462;53.156;8.220;2023-02-03T14:12:21;11.07;;;2.60;;
7657;SDS011;8462;53.156;8.220;2023-02-03T14:15:01;15.70;;;3.87;;
7657;SDS011;8462;53.156;8.220;2023-02-03T14:21:08;15.47;;;4.13;;
7657;SDS011;8462;53.156;8.220;2023-02-03T14:23:41;17.97;;;3.53;;
7657;SDS011;8462;53.156;8.220;2023-02-03T14:29:21;10.53;;;3.30;;
7657;SDS011;8462;53.156;8.220;2023-02-03T14:31:53;10.50;;;2.57;;
7657;SDS011;8462;53.156;8.220;2023-02-03T14:34:32;15.07;;;4.30;;
7657;SDS011;8462;53.156;8.220;2023-02-03T14:37:20;13.00;;;3.03;;
7657;SDS011;8462;53.156;8.220;2023-02-03T14:40:00;13.40;;;3.10;;
7657;SDS011;8462;53.156;8.220;2023-02-03T14:42:46;16.40;;;3.63;;
7657;SDS011;8462;53.156;8.220;2023-02-03T14:45:33;17.97;;;3.20;;
7657;SDS011;8462;53.156;8.220;2023-02-03T14:48:14;11.70;;;3.17;;
7657;SDS011;8462;53.156;8.220;2023-02-03T14:50:57;13.00;;;3.77;;
7657;SDS011;8462;53.156;8.220;2023-02-03T14:53:40;19.47;;;3.83;;
7657;SDS011;8462;53.156;8.220;2023-02-03T14:56:26;18.97;;;4.40;;
7657;SDS011;8462;53.156;8.220;2023-02-03T14:59:20;15.90;;;3.27;;
7657;SDS011;8462;53.156;8.220;2023-02-03T15:04:51;20.40;;;3.47;;
7657;SDS011;8462;53.156;8.220;2023-02-03T15:07:40;22.13;;;4.53;;
7657;SDS011;8462;53.156;8.220;2023-02-03T15:10:13;16.30;;;3.67;;
7657;SDS011;8462;53.156;8.220;2023-02-03T15:12:43;16.70;;;3.87;;
7657;SDS011;8462;53.156;8.220;2023-02-03T15:15:12;25.13;;;4.87;;
7657;SDS011;8462;53.156;8.220;2023-02-03T15:17:47;16.93;;;3.90;;
7657;SDS011;8462;53.156;8.220;2023-02-03T15:20:25;20.20;;;4.37;;
7657;SDS011;8462;53.156;8.220;2023-02-03T15:22:57;21.47;;;4.63;;
7657;SDS011;8462;53.156;8.220;2023-02-03T15:25:24;12.60;;;4.87;;
7657;SDS011;8462;53.156;8.220;2023-02-03T15:27:54;18.87;;;4.17;;
7657;SDS011;8462;53.156;8.220;2023-02-03T15:30:35;19.60;;;4.67;;
7657;SDS011;8462;53.156;8.220;2023-02-03T15:33:04;16.17;;;3.33;;
7657;SDS011;8462;53.156;8.220;2023-02-03T15:35:33;17.83;;;4.83;;
7657;SDS011;8462;53.156;8.220;2023-02-03T15:38:04;18.20;;;3.87;;
7657;SDS011;8462;53.156;8.220;2023-02-03T15:40:34;15.57;;;3.40;;
7657;SDS011;8462;53.156;8.220;2023-02-03T15:43:06;23.80;;;4.37;;
7657;SDS011;8462;53.156;8.220;2023-02-03T15:45:36;20.73;;;4.07;;
7657;SDS011;8462;53.156;8.220;2023-02-03T15:48:11;22.03;;;3.40;;
7657;SDS011;8462;53.156;8.220;2023-02-03T15:50:41;12.53;;;3.40;;
7657;SDS011;8462;53.156;8.220;2023-02-03T15:53:15;22.53;;;3.70;;
7657;SDS011;8462;53.156;8.220;2023-02-03T15:55:46;14.53;;;3.90;;
7657;SDS011;8462;53.156;8.220;2023-02-03T15:58:16;18.70;;;4.40;;
7657;SDS011;8462;53.156;8.220;2023-02-03T16:00:46;16.03;;;4.73;;
7657;SDS011;8462;53.156;8.220;2023-02-03T16:03:16;15.70;;;3.70;;
7657;SDS011;8462;53.156;8.220;2023-02-03T16:05:46;12.07;;;3.87;;
7657;SDS011;8462;53.156;8.220;2023-02-03T16:08:25;20.20;;;4.83;;
7657;SDS011;8462;53.156;8.220;2023-02-03T16:11:26;16.90;;;3.53;;